sensor_id;sensor_type;location;lat;lon;timestamp;pressure;altitude;pressure_sealevel;temperature;humidity
27958;BME280;15295;42.658;23.374;2023-05-12T00:02:13;94858.09;;;14.54;46.96
27958;BME280;15295;42.658;23.374;2023-05-12T00:04:39;94861.78;;;14.44;46.97
27958;BME280;15295;42.658;23.374;2023-05-12T00:07:05;94871.47;;;14.26;47.72
27958;BME280;15295;42.658;23.374;2023-05-12T00:09:31;94863.72;;;14.17;47.80
27958;BME280;15295;42.658;23.374;2023-05-12T00:11:57;94865.41;;;14.08;48.27
27958;BME280;15295;42.658;23.374;2023-05-12T00:14:23;94865.53;;;14.27;47.71
27958;BME280;15295;42.658;23.374;2023-05-12T00:16:48;94866.75;;;14.26;47.65
27958;BME280;15295;42.658;23.374;2023-05-12T00:19:19;94853.59;;;14.11;47.81
27958;BME280;15295;42.658;23.374;2023-05-12T00:21:47;94868.97;;;14.38;47.50
27958;BME280;15295;42.658;23.374;2023-05-12T00:24:13;94866.66;;;14.33;47.83
27958;BME280;15295;42.658;23.374;2023-05-12T00:26:39;94877.25;;;14.35;47.63
27958;BME280;15295;42.658;23.374;2023-05-12T00:29:04;94860.44;;;14.29;47.54
27958;BME280;15295;42.658;23.374;2023-05-12T00:31:29;94856.56;;;13.93;48.38
27958;BME280;15295;42.658;23.374;2023-05-12T00:33:55;94847.22;;;14.17;48.22
27958;BME280;15295;42.658;23.374;2023-05-12T00:36:21;94864.03;;;14.23;48.10
27958;BME280;15295;42.658;23.374;2023-05-12T00:38:46;94856.50;;;13.97;48.82
27958;BME280;15295;42.658;23.374;2023-05-12T00:41:11;94859.00;;;13.87;49.23
27958;BME280;15295;42.658;23.374;2023-05-12T00:43:39;94854.09;;;14.02;48.82
27958;BME280;15295;42.658;23.374;2023-05-12T00:46:12;94866.53;;;13.80;49.53
27958;BME280;15295;42.658;23.374;2023-05-12T00:48:38;94866.13;;;14.12;49.06
27958;BME280;15295;42.658;23.374;2023-05-12T00:51:03;94852.75;;;14.14;48.46
27958;BME280;15295;42.658;23.374;2023-05-12T00:53:30;94882.44;;;13.96;49.25
27958;BME280;15295;42.658;23.374;2023-05-12T00:55:56;94879.09;;;13.81;49.74
27958;BME280;15295;42.658;23.374;2023-05-12T00:58:22;94882.44;;;13.96;49.83
27958;BME280;15295;42.658;23.374;2023-05-12T01:00:47;94881.34;;;13.89;49.67
27958;BME280;15295;42.658;23.374;2023-05-12T01:03:13;94868.63;;;13.69;50.20
27958;BME280;15295;42.658;23.374;2023-05-12T01:05:43;94876.47;;;13.70;50.41
27958;BME280;15295;42.658;23.374;2023-05-12T01:08:12;94881.81;;;13.47;51.38
27958;BME280;15295;42.658;23.374;2023-05-12T01:10:42;94874.34;;;13.07;52.68
27958;BME280;15295;42.658;23.374;2023-05-12T01:13:08;94884.16;;;13.08;52.84
27958;BME280;15295;42.658;23.374;2023-05-12T01:15:34;94884.22;;;13.42;52.41
27958;BME280;15295;42.658;23.374;2023-05-12T01:18:02;94885.22;;;13.58;52.09
27958;BME280;15295;42.658;23.374;2023-05-12T01:20:29;94889.13;;;13.61;51.93
27958;BME280;15295;42.658;23.374;2023-05-12T01:22:58;94888.56;;;13.39;52.35
27958;BME280;15295;42.658;23.374;2023-05-12T01:25:27;94890.09;;;13.44;52.84
27958;BME280;15295;42.658;23.374;2023-05-12T01:27:56;94880.31;;;13.43;52.44
27958;BME280;15295;42.658;23.374;2023-05-12T01:30:23;94881.00;;;13.50;52.37
27958;BME280;15295;42.658;23.374;2023-05-12T01:32:49;94888.72;;;13.62;52.58
27958;BME280;15295;42.658;23.374;2023-05-12T01:35:15;94883.31;;;13.52;52.55
27958;BME280;15295;42.658;23.374;2023-05-12T01:37:41;94884.59;;;13.44;52.11
27958;BME280;15295;42.658;23.374;2023-05-12T01:40:06;94889.28;;;13.47;52.16
27958;BME280;15295;42.658;23.374;2023-05-12T01:42:32;94878.28;;;13.02;52.83
27958;BME280;15295;42.658;23.374;2023-05-12T01:44:57;94869.63;;;13.11;52.94
27958;BME280;15295;42.658;23.374;2023-05-12T01:47:23;94882.97;;;13.09;53.15
27958;BME280;15295;42.658;23.374;2023-05-12T01:49:50;94873.88;;;13.15;53.66
27958;BME280;15295;42.658;23.374;2023-05-12T01:52:18;94891.25;;;12.98;53.43
27958;BME280;15295;42.658;23.374;2023-05-12T01:54:45;94869.34;;;12.44;55.39
27958;BME280;15295;42.658;23.374;2023-05-12T01:57:11;94873.44;;;12.76;54.52
27958;BME280;15295;42.658;23.374;2023-05-12T01:59:36;94874.50;;;12.86;54.37
27958;BME280;15295;42.658;23.374;2023-05-12T02:02:01;94876.47;;;12.89;54.49
27958;BME280;15295;42.658;23.374;2023-05-12T02:04:28;94871.53;;;12.70;55.15
27958;BME280;15295;42.658;23.374;2023-05-12T02:06:53;94878.03;;;12.86;55.12
27958;BME280;15295;42.658;23.374;2023-05-12T02:09:19;94885.09;;;12.84;54.93
27958;BME280;15295;42.658;23.374;2023-05-12T02:11:47;94892.53;;;12.87;54.63
27958;BME280;15295;42.658;23.374;2023-05-12T02:14:12;94880.00;;;12.86;54.68
27958;BME280;15295;42.658;23.374;2023-05-12T02:16:38;94874.47;;;12.93;55.05
27958;BME280;15295;42.658;23.374;2023-05-12T02:19:03;94882.63;;;13.00;55.46
27958;BME280;15295;42.658;23.374;2023-05-12T02:21:31;94864.66;;;12.92;55.40
27958;BME280;15295;42.658;23.374;2023-05-12T02:24:01;94869.34;;;12.95;55.59
27958;BME280;15295;42.658;23.374;2023-05-12T02:26:26;94878.28;;;13.02;55.58
27958;BME280;15295;42.658;23.374;2023-05-12T02:28:52;94875.56;;;13.06;55.74
27958;BME280;15295;42.658;23.374;2023-05-12T02:31:17;94878.31;;;12.99;56.03
27958;BME280;15295;42.658;23.374;2023-05-12T02:33:42;94860.44;;;12.84;56.36
27958;BME280;15295;42.658;23.374;2023-05-12T02:36:08;94872.47;;;12.97;56.32
27958;BME280;15295;42.658;23.374;2023-05-12T02:38:33;94862.75;;;12.89;56.11
27958;BME280;15295;42.658;23.374;2023-05-12T02:40:59;94871.28;;;12.98;55.75
27958;BME280;15295;42.658;23.374;2023-05-12T02:43:25;94868.66;;;12.84;55.81
27958;BME280;15295;42.658;23.374;2023-05-12T02:45:53;94877.00;;;12.70;56.18
27958;BME280;15295;42.658;23.374;2023-05-12T02:48:19;94877.78;;;12.67;56.39
27958;BME280;15295;42.658;23.374;2023-05-12T02:50:44;94865.31;;;12.59;56.46
27958;BME280;15295;42.658;23.374;2023-05-12T02:53:09;94873.50;;;12.66;56.79
27958;BME280;15295;42.658;23.374;2023-05-12T02:55:35;94865.38;;;12.52;57.08
27958;BME280;15295;42.658;23.374;2023-05-12T02:58:00;94875.16;;;12.53;57.01
27958;BME280;15295;42.658;23.374;2023-05-12T03:00:26;94870.41;;;12.60;57.30
27958;BME280;15295;42.658;23.374;2023-05-12T03:02:51;94868.09;;;12.55;57.14
27958;BME280;15295;42.658;23.374;2023-05-12T03:05:18;94867.78;;;12.43;57.79
27958;BME280;15295;42.658;23.374;2023-05-12T03:07:46;94857.63;;;12.39;57.65
27958;BME280;15295;42.658;23.374;2023-05-12T03:10:12;94872.47;;;12.46;57.99
27958;BME280;15295;42.658;23.374;2023-05-12T03:12:38;94862.69;;;12.41;57.75
27958;BME280;15295;42.658;23.374;2023-05-12T03:15:05;94873.25;;;12.43;57.95
27958;BME280;15295;42.658;23.374;2023-05-12T03:17:30;94874.88;;;12.40;58.46
27958;BME280;15295;42.658;23.374;2023-05-12T03:19:56;94872.13;;;12.36;57.96
27958;BME280;15295;42.658;23.374;2023-05-12T03:22:21;94870.63;;;12.28;58.42
27958;BME280;15295;42.658;23.374;2023-05-12T03:24:47;94868.38;;;12.09;58.93
27958;BME280;15295;42.658;23.374;2023-05-12T03:27:12;94886.34;;;12.21;59.00
27958;BME280;15295;42.658;23.374;2023-05-12T03:29:38;94880.44;;;12.22;58.94
27958;BME280;15295;42.658;23.374;2023-05-12T03:32:04;94878.44;;;12.30;58.88
27958;BME280;15295;42.658;23.374;2023-05-12T03:34:30;94878.94;;;12.14;59.25
27958;BME280;15295;42.658;23.374;2023-05-12T03:36:56;94867.59;;;12.12;58.72
27958;BME280;15295;42.658;23.374;2023-05-12T03:39:21;94897.22;;;12.28;59.06
27958;BME280;15295;42.658;23.374;2023-05-12T03:41:48;94871.13;;;12.09;59.34
27958;BME280;15295;42.658;23.374;2023-05-12T03:44:15;94895.28;;;12.28;59.13
27958;BME280;15295;42.658;23.374;2023-05-12T03:46:41;94896.47;;;12.24;59.17
27958;BME280;15295;42.658;23.374;2023-05-12T03:49:06;94853.16;;;11.98;59.28
27958;BME280;15295;42.658;23.374;2023-05-12T03:51:32;94896.03;;;12.32;58.83
27958;BME280;15295;42.658;23.374;2023-05-12T03:53:57;94873.44;;;12.11;59.25
27958;BME280;15295;42.658;23.374;2023-05-12T03:56:23;94901.53;;;12.32;59.09
27958;BME280;15295;42.658;23.374;2023-05-12T03:58:48;94892.94;;;12.23;59.24
27958;BME280;15295;42.658;23.374;2023-05-12T04:01:14;94896.50;;;12.20;59.56
27958;BME280;15295;42.658;23.374;2023-05-12T04:03:39;94879.75;;;12.08;59.79
27958;BME280;15295;42.658;23.374;2023-05-12T04:06:06;94896.88;;;12.22;59.55
27958;BME280;15295;42.658;23.374;2023-05-12T04:08:31;94903.91;;;12.27;59.36
27958;BME280;15295;42.658;23.374;2023-05-12T04:10:58;94900.75;;;12.28;59.39
27958;BME280;15295;42.658;23.374;2023-05-12T04:13:25;94915.22;;;12.32;59.41
27958;BME280;15295;42.658;23.374;2023-05-12T04:15:56;94904.25;;;12.32;59.15
27958;BME280;15295;42.658;23.374;2023-05-12T04:18:23;94900.34;;;12.33;59.10
27958;BME280;15295;42.658;23.374;2023-05-12T04:20:48;94917.09;;;12.43;59.02
27958;BME280;15295;42.658;23.374;2023-05-12T04:23:13;94920.22;;;12.45;59.04
27958;BME280;15295;42.658;23.374;2023-05-12T04:25:40;94912.84;;;12.34;59.26
27958;BME280;15295;42.658;23.374;2023-05-12T04:28:06;94903.84;;;12.37;59.07
27958;BME280;15295;42.658;23.374;2023-05-12T04:30:32;94903.81;;;12.41;59.02
27958;BME280;15295;42.658;23.374;2023-05-12T04:32:57;94901.03;;;12.45;59.00
27958;BME280;15295;42.658;23.374;2023-05-12T04:35:23;94898.72;;;12.43;58.93
27958;BME280;15295;42.658;23.374;2023-05-12T04:37:48;94919.09;;;12.42;58.73
27958;BME280;15295;42.658;23.374;2023-05-12T04:40:14;94897.53;;;12.40;58.60
27958;BME280;15295;42.658;23.374;2023-05-12T04:42:39;94893.22;;;12.47;58.79
27958;BME280;15295;42.658;23.374;2023-05-12T04:45:05;94903.75;;;12.55;58.82
27958;BME280;15295;42.658;23.374;2023-05-12T04:47:31;94904.50;;;12.59;58.78
27958;BME280;15295;42.658;23.374;2023-05-12T04:49:57;94911.44;;;12.71;58.76
27958;BME280;15295;42.658;23.374;2023-05-12T04:52:22;94905.59;;;12.69;58.75
27958;BME280;15295;42.658;23.374;2023-05-12T04:54:47;94900.09;;;12.69;58.81
27958;BME280;15295;42.658;23.374;2023-05-12T04:57:13;94908.66;;;12.78;58.21
27958;BME280;15295;42.658;23.374;2023-05-12T04:59:38;94902.84;;;12.72;58.33
27958;BME280;15295;42.658;23.374;2023-05-12T05:02:04;94917.66;;;12.82;58.07
27958;BME280;15295;42.658;23.374;2023-05-12T05:04:29;94916.09;;;12.81;57.73
27958;BME280;15295;42.658;23.374;2023-05-12T05:06:55;94919.53;;;12.92;57.83
27958;BME280;15295;42.658;23.374;2023-05-12T05:09:20;94919.50;;;12.95;58.06
27958;BME280;15295;42.658;23.374;2023-05-12T05:11:46;94921.47;;;12.95;58.05
27958;BME280;15295;42.658;23.374;2023-05-12T05:14:11;94918.31;;;13.00;57.53
27958;BME280;15295;42.658;23.374;2023-05-12T05:16:37;94906.63;;;12.89;57.79
27958;BME280;15295;42.658;23.374;2023-05-12T05:19:02;94910.91;;;12.93;57.66
27958;BME280;15295;42.658;23.374;2023-05-12T05:21:28;94919.22;;;12.83;57.88
27958;BME280;15295;42.658;23.374;2023-05-12T05:23:53;94916.84;;;12.85;58.10
27958;BME280;15295;42.658;23.374;2023-05-12T05:26:19;94914.09;;;12.85;57.95
27958;BME280;15295;42.658;23.374;2023-05-12T05:28:46;94931.34;;;12.82;58.18
27958;BME280;15295;42.658;23.374;2023-05-12T05:31:15;94923.53;;;12.77;58.20
27958;BME280;15295;42.658;23.374;2023-05-12T05:33:41;94928.53;;;12.92;57.91
27958;BME280;15295;42.658;23.374;2023-05-12T05:36:07;94931.69;;;12.87;58.22
27958;BME280;15295;42.658;23.374;2023-05-12T05:38:32;94923.06;;;12.92;57.94
27958;BME280;15295;42.658;23.374;2023-05-12T05:40:57;94926.53;;;12.96;58.24
27958;BME280;15295;42.658;23.374;2023-05-12T05:43:23;94927.75;;;12.92;58.35
27958;BME280;15295;42.658;23.374;2023-05-12T05:45:55;94921.47;;;12.95;58.17
27958;BME280;15295;42.658;23.374;2023-05-12T05:48:23;94933.22;;;12.95;58.03
27958;BME280;15295;42.658;23.374;2023-05-12T05:50:50;94930.88;;;12.94;58.05
27958;BME280;15295;42.658;23.374;2023-05-12T05:53:16;94931.59;;;13.08;57.95
27958;BME280;15295;42.658;23.374;2023-05-12T05:55:46;94935.47;;;13.11;57.95
27958;BME280;15295;42.658;23.374;2023-05-12T05:58:14;94922.59;;;13.04;57.29
27958;BME280;15295;42.658;23.374;2023-05-12T06:00:41;94930.00;;;13.07;57.25
27958;BME280;15295;42.658;23.374;2023-05-12T06:03:07;94925.38;;;12.94;57.25
27958;BME280;15295;42.658;23.374;2023-05-12T06:05:32;94922.19;;;13.06;57.43
27958;BME280;15295;42.658;23.374;2023-05-12T06:07:57;94944.13;;;13.09;57.51
27958;BME280;15295;42.658;23.374;2023-05-12T06:10:23;94940.94;;;13.14;57.53
27958;BME280;15295;42.658;23.374;2023-05-12T06:12:48;94919.84;;;13.01;57.40
27958;BME280;15295;42.658;23.374;2023-05-12T06:15:14;94933.88;;;13.13;57.29
27958;BME280;15295;42.658;23.374;2023-05-12T06:17:41;94949.94;;;13.19;57.16
27958;BME280;15295;42.658;23.374;2023-05-12T06:20:07;94934.25;;;13.15;56.75
27958;BME280;15295;42.658;23.374;2023-05-12T06:22:32;94950.25;;;13.28;56.57
27958;BME280;15295;42.658;23.374;2023-05-12T06:24:59;94948.72;;;13.20;56.73
27958;BME280;15295;42.658;23.374;2023-05-12T06:27:24;94940.50;;;13.20;56.43
27958;BME280;15295;42.658;23.374;2023-05-12T06:29:50;94955.66;;;13.35;56.02
27958;BME280;15295;42.658;23.374;2023-05-12T06:32:16;94950.94;;;13.35;56.21
27958;BME280;15295;42.658;23.374;2023-05-12T06:34:41;94949.31;;;13.41;55.71
27958;BME280;15295;42.658;23.374;2023-05-12T06:37:07;94945.81;;;13.41;55.50
27958;BME280;15295;42.658;23.374;2023-05-12T06:39:32;94952.44;;;13.47;55.18
27958;BME280;15295;42.658;23.374;2023-05-12T06:41:58;94951.66;;;13.46;55.58
27958;BME280;15295;42.658;23.374;2023-05-12T06:44:23;94947.31;;;13.49;55.52
27958;BME280;15295;42.658;23.374;2023-05-12T06:46:51;94964.72;;;13.72;55.03
27958;BME280;15295;42.658;23.374;2023-05-12T06:49:16;94941.78;;;13.52;55.03
27958;BME280;15295;42.658;23.374;2023-05-12T06:51:42;94955.72;;;13.72;55.02
27958;BME280;15295;42.658;23.374;2023-05-12T06:54:07;94964.56;;;13.86;54.84
27958;BME280;15295;42.658;23.374;2023-05-12T06:56:33;94964.56;;;13.86;54.23
27958;BME280;15295;42.658;23.374;2023-05-12T06:58:58;94952.47;;;13.80;54.00
27958;BME280;15295;42.658;23.374;2023-05-12T07:01:28;94964.53;;;13.90;53.65
27958;BME280;15295;42.658;23.374;2023-05-12T07:03:55;94943.44;;;13.83;54.00
27958;BME280;15295;42.658;23.374;2023-05-12T07:06:20;94959.03;;;13.90;54.12
27958;BME280;15295;42.658;23.374;2023-05-12T07:08:48;94928.47;;;13.51;53.37
27958;BME280;15295;42.658;23.374;2023-05-12T07:11:14;94967.84;;;13.74;53.82
27958;BME280;15295;42.658;23.374;2023-05-12T07:13:45;94954.50;;;13.76;53.53
27958;BME280;15295;42.658;23.374;2023-05-12T07:16:11;94961.41;;;13.88;53.34
27958;BME280;15295;42.658;23.374;2023-05-12T07:18:37;94952.00;;;13.89;53.79
27958;BME280;15295;42.658;23.374;2023-05-12T07:21:03;94969.53;;;13.99;53.65
27958;BME280;15295;42.658;23.374;2023-05-12T07:23:28;94967.19;;;14.01;53.53
27958;BME280;15295;42.658;23.374;2023-05-12T07:25:54;94963.56;;;14.07;53.56
27958;BME280;15295;42.658;23.374;2023-05-12T07:28:20;94971.31;;;14.16;53.36
27958;BME280;15295;42.658;23.374;2023-05-12T07:30:45;94965.44;;;14.14;53.44
27958;BME280;15295;42.658;23.374;2023-05-12T07:33:11;94969.22;;;14.27;53.52
27958;BME280;15295;42.658;23.374;2023-05-12T07:35:36;94972.72;;;14.34;52.75
27958;BME280;15295;42.658;23.374;2023-05-12T07:38:03;94966.06;;;14.32;52.68
27958;BME280;15295;42.658;23.374;2023-05-12T07:40:28;94960.56;;;14.32;52.79
27958;BME280;15295;42.658;23.374;2023-05-12T07:42:54;94975.41;;;14.38;52.94
27958;BME280;15295;42.658;23.374;2023-05-12T07:45:20;94956.09;;;14.41;52.92
27958;BME280;15295;42.658;23.374;2023-05-12T07:47:50;94970.63;;;14.42;52.76
27958;BME280;15295;42.658;23.374;2023-05-12T07:50:17;94976.41;;;14.51;51.97
27958;BME280;15295;42.658;23.374;2023-05-12T07:52:50;94964.50;;;14.61;52.11
27958;BME280;15295;42.658;23.374;2023-05-12T07:55:17;94974.59;;;14.71;52.30
27958;BME280;15295;42.658;23.374;2023-05-12T07:57:44;94959.41;;;14.59;51.38
27958;BME280;15295;42.658;23.374;2023-05-12T08:00:10;94926.09;;;14.54;51.63
27958;BME280;15295;42.658;23.374;2023-05-12T08:02:36;94947.31;;;14.80;51.14
27958;BME280;15295;42.658;23.374;2023-05-12T08:05:02;94963.28;;;14.92;50.68
27958;BME280;15295;42.658;23.374;2023-05-12T08:07:27;94957.34;;;14.94;50.11
27958;BME280;15295;42.658;23.374;2023-05-12T08:09:52;94963.06;;;15.06;50.45
27958;BME280;15295;42.658;23.374;2023-05-12T08:12:19;94962.97;;;15.13;50.09
27958;BME280;15295;42.658;23.374;2023-05-12T08:14:44;94957.03;;;15.15;49.61
27958;BME280;15295;42.658;23.374;2023-05-12T08:17:10;94971.69;;;15.31;49.71
27958;BME280;15295;42.658;23.374;2023-05-12T08:19:35;94959.09;;;15.34;50.09
27958;BME280;15295;42.658;23.374;2023-05-12T08:22:01;94964.59;;;15.34;49.03
27958;BME280;15295;42.658;23.374;2023-05-12T08:24:28;94970.53;;;15.32;49.17
27958;BME280;15295;42.658;23.374;2023-05-12T08:26:53;94968.78;;;15.42;49.08
27958;BME280;15295;42.658;23.374;2023-05-12T08:29:18;94954.50;;;15.51;48.46
27958;BME280;15295;42.658;23.374;2023-05-12T08:31:44;94968.13;;;15.34;48.42
27958;BME280;15295;42.658;23.374;2023-05-12T08:34:09;94974.28;;;15.42;48.77
27958;BME280;15295;42.658;23.374;2023-05-12T08:36:36;94969.66;;;15.62;48.61
27958;BME280;15295;42.658;23.374;2023-05-12T08:39:01;94981.41;;;15.66;47.95
27958;BME280;15295;42.658;23.374;2023-05-12T08:44:38;94965.81;;;15.79;47.89
27958;BME280;15295;42.658;23.374;2023-05-12T08:47:05;94967.16;;;15.71;47.25
27958;BME280;15295;42.658;23.374;2023-05-12T08:49:34;94969.53;;;15.69;47.84
27958;BME280;15295;42.658;23.374;2023-05-12T08:52:01;94962.91;;;15.67;47.15
27958;BME280;15295;42.658;23.374;2023-05-12T08:54:27;94970.25;;;15.73;46.89
27958;BME280;15295;42.658;23.374;2023-05-12T08:56:53;94951.69;;;15.54;47.35
27958;BME280;15295;42.658;23.374;2023-05-12T08:59:20;94970.00;;;15.64;47.19
27958;BME280;15295;42.658;23.374;2023-05-12T09:01:47;94966.78;;;15.69;47.21
27958;BME280;15295;42.658;23.374;2023-05-12T09:04:16;94977.63;;;15.80;46.70
27958;BME280;15295;42.658;23.374;2023-05-12T09:06:42;94954.34;;;15.81;46.55
27958;BME280;15295;42.658;23.374;2023-05-12T09:09:10;94971.44;;;15.72;47.17
27958;BME280;15295;42.658;23.374;2023-05-12T09:11:39;94963.94;;;15.96;46.85
27958;BME280;15295;42.658;23.374;2023-05-12T09:14:13;94950.38;;;16.05;46.93
27958;BME280;15295;42.658;23.374;2023-05-12T09:16:44;94932.69;;;16.02;46.46
27958;BME280;15295;42.658;23.374;2023-05-12T09:19:10;94943.44;;;15.97;46.57
27958;BME280;15295;42.658;23.374;2023-05-12T09:21:38;94936.66;;;16.21;46.00
27958;BME280;15295;42.658;23.374;2023-05-12T09:24:08;94944.44;;;16.26;45.94
27958;BME280;15295;42.658;23.374;2023-05-12T09:26:47;94941.19;;;16.31;45.85
27958;BME280;15295;42.658;23.374;2023-05-12T09:29:13;94961.41;;;16.44;45.79
27958;BME280;15295;42.658;23.374;2023-05-12T09:31:52;94958.44;;;16.35;45.60
27958;BME280;15295;42.658;23.374;2023-05-12T09:34:20;94943.03;;;16.57;45.14
27958;BME280;15295;42.658;23.374;2023-05-12T09:36:55;94949.28;;;16.61;44.88
27958;BME280;15295;42.658;23.374;2023-05-12T09:39:22;94951.34;;;16.34;45.20
27958;BME280;15295;42.658;23.374;2023-05-12T09:41:49;94944.53;;;16.42;44.95
27958;BME280;15295;42.658;23.374;2023-05-12T09:44:15;94934.97;;;16.27;44.71
27958;BME280;15295;42.658;23.374;2023-05-12T09:46:41;94944.78;;;16.28;44.90
27958;BME280;15295;42.658;23.374;2023-05-12T09:49:06;94937.28;;;16.48;44.29
27958;BME280;15295;42.658;23.374;2023-05-12T09:51:32;94958.59;;;16.28;44.16
27958;BME280;15295;42.658;23.374;2023-05-12T09:53:58;94950.09;;;15.76;44.73
27958;BME280;15295;42.658;23.374;2023-05-12T09:56:26;94952.94;;;15.73;45.07
27958;BME280;15295;42.658;23.374;2023-05-12T09:58:52;94934.75;;;15.98;44.78
27958;BME280;15295;42.658;23.374;2023-05-12T10:01:19;94952.56;;;16.33;44.64
27958;BME280;15295;42.658;23.374;2023-05-12T10:03:47;94935.28;;;16.49;43.92
27958;BME280;15295;42.658;23.374;2023-05-12T10:06:15;94953.84;;;16.48;44.20
27958;BME280;15295;42.658;23.374;2023-05-12T10:11:28;94927.31;;;16.90;43.43
27958;BME280;15295;42.658;23.374;2023-05-12T10:13:55;94923.53;;;17.00;42.77
27958;BME280;15295;42.658;23.374;2023-05-12T10:16:21;94935.91;;;17.28;42.13
27958;BME280;15295;42.658;23.374;2023-05-12T10:18:49;94930.47;;;17.24;42.33
27958;BME280;15295;42.658;23.374;2023-05-12T10:21:15;94918.28;;;17.06;42.00
27958;BME280;15295;42.658;23.374;2023-05-12T10:23:40;94933.00;;;17.51;41.52
27958;BME280;15295;42.658;23.374;2023-05-12T10:26:09;94932.72;;;17.61;41.65
27958;BME280;15295;42.658;23.374;2023-05-12T10:28:34;94923.28;;;17.43;41.37
27958;BME280;15295;42.658;23.374;2023-05-12T10:31:02;94915.09;;;17.39;41.13
27958;BME280;15295;42.658;23.374;2023-05-12T10:33:29;94921.91;;;17.83;41.37
27958;BME280;15295;42.658;23.374;2023-05-12T10:35:55;94922.56;;;17.87;40.63
27958;BME280;15295;42.658;23.374;2023-05-12T10:38:21;94906.34;;;17.73;40.84
27958;BME280;15295;42.658;23.374;2023-05-12T10:40:54;94915.97;;;17.97;40.49
27958;BME280;15295;42.658;23.374;2023-05-12T10:43:26;94911.19;;;18.26;40.03
27958;BME280;15295;42.658;23.374;2023-05-12T10:46:14;94905.34;;;18.24;39.92
27958;BME280;15295;42.658;23.374;2023-05-12T10:54:10;94917.44;;;18.30;40.19
27958;BME280;15295;42.658;23.374;2023-05-12T10:59:14;94902.56;;;18.24;39.83
27958;BME280;15295;42.658;23.374;2023-05-12T11:02:11;94915.97;;;18.26;39.95
27958;BME280;15295;42.658;23.374;2023-05-12T11:04:51;94918.25;;;17.86;40.24
27958;BME280;15295;42.658;23.374;2023-05-12T11:07:22;94913.59;;;18.12;40.21
27958;BME280;15295;42.658;23.374;2023-05-12T11:09:48;94923.72;;;18.31;39.53
27958;BME280;15295;42.658;23.374;2023-05-12T11:12:16;94923.53;;;18.38;39.41
27958;BME280;15295;42.658;23.374;2023-05-12T11:14:43;94921.19;;;18.78;39.15
27958;BME280;15295;42.658;23.374;2023-05-12T11:17:09;94935.13;;;18.62;39.40
27958;BME280;15295;42.658;23.374;2023-05-12T11:19:36;94923.13;;;18.52;39.10
27958;BME280;15295;42.658;23.374;2023-05-12T11:22:07;94918.41;;;18.78;39.00
27958;BME280;15295;42.658;23.374;2023-05-12T11:24:34;94919.53;;;18.93;38.58
27958;BME280;15295;42.658;23.374;2023-05-12T11:27:01;94935.06;;;19.03;38.60
27958;BME280;15295;42.658;23.374;2023-05-12T11:29:28;94917.13;;;19.07;38.35
27958;BME280;15295;42.658;23.374;2023-05-12T11:31:53;94933.50;;;18.77;38.13
27958;BME280;15295;42.658;23.374;2023-05-12T11:34:20;94913.78;;;19.00;37.84
27958;BME280;15295;42.658;23.374;2023-05-12T11:36:46;94919.66;;;19.02;38.23
27958;BME280;15295;42.658;23.374;2023-05-12T11:39:19;94929.88;;;19.05;37.55
27958;BME280;15295;42.658;23.374;2023-05-12T11:41:48;94920.97;;;18.31;37.23
27958;BME280;15295;42.658;23.374;2023-05-12T11:44:18;94931.44;;;18.52;37.69
27958;BME280;15295;42.658;23.374;2023-05-12T11:49:24;94932.28;;;18.08;39.08
27958;BME280;15295;42.658;23.374;2023-05-12T11:51:53;94912.56;;;18.34;38.14
27958;BME280;15295;42.658;23.374;2023-05-12T11:54:19;94920.16;;;18.46;38.08
27958;BME280;15295;42.658;23.374;2023-05-12T11:56:52;94933.69;;;18.28;38.42
27958;BME280;15295;42.658;23.374;2023-05-12T11:59:29;94933.06;;;18.08;39.15
27958;BME280;15295;42.658;23.374;2023-05-12T12:01:56;94913.06;;;18.17;39.38
27958;BME280;15295;42.658;23.374;2023-05-12T12:04:37;94932.41;;;17.88;39.19
27958;BME280;15295;42.658;23.374;2023-05-12T12:07:05;94924.63;;;17.99;39.40
27958;BME280;15295;42.658;23.374;2023-05-12T12:09:35;94942.56;;;18.07;39.45
27958;BME280;15295;42.658;23.374;2023-05-12T12:12:03;94929.63;;;18.04;39.54
27958;BME280;15295;42.658;23.374;2023-05-12T12:14:32;94929.91;;;18.22;39.58
27958;BME280;15295;42.658;23.374;2023-05-12T12:16:58;94933.94;;;18.05;39.42
27958;BME280;15295;42.658;23.374;2023-05-12T12:19:25;94948.31;;;18.00;39.29
27958;BME280;15295;42.658;23.374;2023-05-12T12:21:52;94954.72;;;17.49;40.47
27958;BME280;15295;42.658;23.374;2023-05-12T12:24:18;94938.16;;;17.81;40.42
27958;BME280;15295;42.658;23.374;2023-05-12T12:26:43;94925.41;;;18.00;39.58
27958;BME280;15295;42.658;23.374;2023-05-12T12:29:08;94936.13;;;17.82;39.96
27958;BME280;15295;42.658;23.374;2023-05-12T12:31:34;94931.22;;;17.89;39.80
27958;BME280;15295;42.658;23.374;2023-05-12T12:34:01;94926.19;;;18.00;39.46
27958;BME280;15295;42.658;23.374;2023-05-12T12:36:26;94929.28;;;18.02;39.47
27958;BME280;15295;42.658;23.374;2023-05-12T12:38:52;94917.53;;;17.98;39.19
27958;BME280;15295;42.658;23.374;2023-05-12T12:41:17;94937.91;;;18.04;39.12
27958;BME280;15295;42.658;23.374;2023-05-12T12:43:43;94942.50;;;17.95;39.71
27958;BME280;15295;42.658;23.374;2023-05-12T12:46:09;94934.69;;;18.22;38.73
27958;BME280;15295;42.658;23.374;2023-05-12T12:48:34;94915.69;;;18.08;39.44
27958;BME280;15295;42.658;23.374;2023-05-12T12:51:00;94947.81;;;18.18;38.95
27958;BME280;15295;42.658;23.374;2023-05-12T12:53:25;94918.22;;;18.02;38.87
27958;BME280;15295;42.658;23.374;2023-05-12T12:55:51;94924.31;;;18.10;38.34
27958;BME280;15295;42.658;23.374;2023-05-12T12:58:17;94925.28;;;18.03;38.72
27958;BME280;15295;42.658;23.374;2023-05-12T13:00:43;94924.34;;;18.22;38.52
27958;BME280;15295;42.658;23.374;2023-05-12T13:03:09;94917.16;;;18.12;38.45
27958;BME280;15295;42.658;23.374;2023-05-12T13:05:35;94918.06;;;17.93;38.37